createdAt,value
2018-07-07T00:00:32.575Z,100.00
2018-07-07T00:03:01.181Z,100.00
2018-07-07T00:05:31.695Z,100.00
2018-07-07T00:08:00.237Z,100.00
2018-07-07T00:10:28.772Z,100.00
2018-07-07T00:12:57.299Z,100.00
2018-07-07T00:15:25.868Z,100.00
2018-07-07T00:17:54.388Z,100.00
2018-07-07T00:20:22.925Z,100.00
2018-07-07T00:22:52.408Z,100.00
2018-07-07T00:25:20.946Z,100.00
2018-07-07T00:27:50.414Z,100.00
2018-07-07T00:30:19.923Z,100.00
2018-07-07T00:32:48.495Z,100.00
2018-07-07T00:35:18.164Z,100.00
2018-07-07T00:37:46.736Z,100.00
2018-07-07T00:40:15.279Z,100.00
2018-07-07T00:42:43.807Z,100.00
2018-07-07T00:45:12.340Z,100.00
2018-07-07T00:47:44.566Z,100.00
2018-07-07T00:50:14.096Z,100.00
2018-07-07T00:52:43.608Z,100.00
2018-07-07T00:55:12.155Z,100.00
2018-07-07T00:57:40.684Z,100.00
2018-07-07T01:00:09.233Z,100.00
2018-07-07T01:02:37.758Z,100.00
2018-07-07T01:05:08.239Z,100.00
2018-07-07T01:07:36.765Z,100.00
2018-07-07T01:10:05.318Z,100.00
2018-07-07T01:12:33.849Z,100.00
2018-07-07T01:15:02.417Z,100.00
2018-07-07T01:17:30.958Z,100.00
2018-07-07T01:19:59.476Z,100.00
2018-07-07T01:22:28.007Z,100.00
2018-07-07T01:24:56.552Z,100.00
2018-07-07T01:27:25.098Z,100.00
2018-07-07T01:29:53.637Z,100.00
2018-07-07T01:32:23.147Z,100.00
2018-07-07T01:34:51.800Z,100.00
2018-07-07T01:37:20.334Z,100.00
2018-07-07T01:39:48.884Z,100.00
2018-07-07T01:42:17.423Z,100.00
2018-07-07T01:44:45.957Z,100.00
2018-07-07T01:47:14.500Z,100.00
2018-07-07T01:49:43.859Z,100.00
2018-07-07T01:52:13.364Z,100.00
2018-07-07T01:54:41.915Z,100.00
2018-07-07T01:57:15.447Z,100.00
2018-07-07T01:59:43.990Z,100.00
2018-07-07T02:02:14.415Z,100.00
2018-07-07T02:04:44.906Z,100.00
2018-07-07T02:07:17.272Z,100.00
2018-07-07T02:09:45.817Z,100.00
2018-07-07T02:14:09.193Z,100.00
2018-07-07T02:16:39.198Z,100.00
2018-07-07T02:19:08.248Z,100.00
2018-07-07T02:21:37.323Z,100.00
2018-07-07T02:24:06.404Z,100.00
2018-07-07T02:26:39.727Z,100.00
2018-07-07T02:31:44.546Z,100.00
2018-07-07T02:34:13.633Z,100.00
2018-07-07T02:36:44.674Z,100.00
2018-07-07T02:39:13.749Z,100.00
2018-07-07T02:41:42.810Z,100.00
2018-07-07T02:44:15.044Z,100.00
2018-07-07T02:46:47.924Z,100.00
2018-07-07T02:51:52.700Z,100.00
2018-07-07T02:54:24.849Z,100.00
2018-07-07T02:59:29.613Z,100.00
2018-07-07T03:02:03.028Z,100.00
2018-07-07T03:04:40.041Z,100.00
2018-07-07T03:07:09.130Z,100.00
2018-07-07T03:09:38.175Z,100.00
2018-07-07T03:14:42.945Z,100.00
2018-07-07T03:17:12.017Z,100.00
2018-07-07T03:22:17.024Z,100.00
2018-07-07T03:24:46.126Z,100.00
2018-07-07T03:27:15.182Z,100.00
2018-07-07T03:29:46.222Z,100.00
2018-07-07T03:32:18.905Z,100.00
2018-07-07T03:34:47.970Z,100.00
2018-07-07T03:37:17.053Z,100.00
2018-07-07T03:39:46.159Z,100.00
2018-07-07T03:42:17.170Z,100.00
2018-07-07T03:44:46.289Z,100.00
2018-07-07T03:47:17.281Z,100.00
2018-07-07T03:52:23.058Z,100.00
2018-07-07T03:57:27.834Z,100.00
2018-07-07T03:59:59.196Z,100.00
2018-07-07T04:05:05.996Z,100.00
2018-07-07T04:07:35.942Z,100.00
2018-07-07T04:10:05.219Z,100.00
2018-07-07T04:12:34.278Z,100.00
2018-07-07T04:15:03.386Z,100.00
2018-07-07T04:20:08.196Z,100.00
2018-07-07T04:22:37.254Z,100.00
2018-07-07T04:25:06.437Z,100.00
2018-07-07T04:27:35.516Z,100.00
2018-07-07T04:30:13.113Z,100.00
2018-07-07T04:35:17.890Z,100.00
2018-07-07T04:37:46.967Z,100.00
2018-07-07T04:40:16.212Z,100.00
2018-07-07T04:42:45.274Z,100.00
2018-07-07T04:45:15.285Z,100.00
2018-07-07T04:50:20.069Z,100.00
2018-07-07T04:55:25.589Z,100.00
2018-07-07T04:57:55.687Z,100.00
2018-07-07T05:03:03.717Z,100.00
2018-07-07T05:05:32.811Z,100.00
2018-07-07T05:08:01.980Z,100.00
2018-07-07T05:10:31.980Z,100.00
2018-07-07T05:13:01.042Z,100.00
2018-07-07T05:15:30.143Z,100.00
2018-07-07T05:17:59.539Z,100.00
2018-07-07T05:20:28.598Z,100.00
2018-07-07T05:22:58.207Z,100.00
2018-07-07T05:25:27.286Z,100.00
2018-07-07T05:30:32.085Z,100.00
2018-07-07T05:33:02.144Z,100.00
2018-07-07T05:35:31.211Z,100.00
2018-07-07T05:38:00.408Z,100.00
2018-07-07T05:40:29.714Z,100.00
2018-07-07T05:42:58.833Z,100.00
2018-07-07T05:45:27.894Z,100.00
2018-07-07T05:50:32.817Z,100.00
2018-07-07T05:53:01.910Z,100.00
2018-07-07T05:55:43.809Z,100.00
2018-07-07T05:58:23.908Z,100.00
2018-07-07T06:01:02.441Z,100.00
2018-07-07T06:03:37.515Z,100.00
2018-07-07T06:06:07.205Z,100.00
2018-07-07T06:08:36.277Z,100.00
2018-07-07T06:11:05.342Z,100.00
2018-07-07T06:13:34.425Z,97.11
2018-07-07T06:16:03.695Z,98.53
2018-07-07T06:18:32.806Z,98.52
2018-07-07T06:21:01.861Z,96.15
2018-07-07T06:23:31.846Z,93.90
2018-07-07T06:26:01.124Z,96.70
2018-07-07T06:28:30.354Z,95.80
2018-07-07T06:30:59.462Z,95.61
2018-07-07T06:33:28.528Z,96.39
2018-07-07T06:35:57.697Z,97.19
2018-07-07T06:38:26.774Z,95.69
2018-07-07T06:43:31.793Z,95.03
2018-07-07T06:46:02.932Z,92.11
2018-07-07T06:48:31.968Z,93.07
2018-07-07T06:51:01.973Z,92.34
2018-07-07T06:53:31.039Z,93.08
2018-07-07T06:56:00.317Z,89.64
2018-07-07T06:58:29.373Z,90.34
2018-07-07T07:01:00.421Z,85.10
2018-07-07T07:03:29.502Z,86.10
2018-07-07T07:05:58.635Z,86.12
2018-07-07T07:11:03.394Z,88.70
2018-07-07T07:16:08.241Z,89.03
2018-07-07T07:18:38.299Z,87.87
2018-07-07T07:21:07.701Z,83.94
2018-07-07T07:23:36.751Z,83.24
2018-07-07T07:26:05.945Z,84.02
2018-07-07T07:28:34.911Z,85.25
2018-07-07T07:31:04.079Z,85.34
2018-07-07T07:33:33.112Z,81.79
2018-07-07T07:36:06.277Z,77.64
2018-07-07T07:38:36.247Z,76.45
2018-07-07T07:41:06.581Z,75.16
2018-07-07T07:43:35.692Z,77.08
2018-07-07T07:46:05.040Z,78.83
2018-07-07T07:51:09.969Z,76.61
2018-07-07T07:53:40.111Z,74.41
2018-07-07T07:56:09.164Z,73.25
2018-07-07T07:58:38.234Z,76.03
2018-07-07T08:01:08.667Z,69.12
2018-07-07T08:03:37.838Z,74.22
2018-07-07T08:06:06.871Z,71.08
2018-07-07T08:08:35.914Z,72.66
2018-07-07T08:13:40.773Z,76.73
2018-07-07T08:16:09.897Z,74.49
2018-07-07T08:18:40.258Z,68.01
2018-07-07T08:21:09.309Z,69.71
2018-07-07T08:23:39.608Z,66.96
2018-07-07T08:26:08.965Z,64.58
2018-07-07T08:28:39.067Z,62.18
2018-07-07T08:31:08.158Z,57.33
2018-07-07T08:33:37.214Z,60.67
2018-07-07T08:36:06.447Z,64.44
2018-07-07T08:41:11.294Z,58.47
2018-07-07T08:46:16.150Z,63.71
2018-07-07T08:48:45.950Z,62.13
2018-07-07T08:51:19.329Z,63.48
2018-07-07T08:53:49.126Z,60.05
2018-07-07T08:56:18.187Z,60.50
2018-07-07T08:58:47.256Z,59.36
2018-07-07T09:01:16.419Z,58.66
2018-07-07T09:03:45.473Z,57.32
2018-07-07T09:08:50.325Z,57.85
2018-07-07T09:11:20.330Z,54.38
2018-07-07T09:13:55.015Z,54.79
2018-07-07T09:16:32.556Z,50.27
2018-07-07T09:21:37.433Z,54.99
2018-07-07T09:24:07.409Z,51.97
2018-07-07T09:26:40.410Z,51.43
2018-07-07T09:29:10.418Z,51.41
2018-07-07T09:31:39.476Z,50.97
2018-07-07T09:34:08.802Z,43.52
2018-07-07T09:36:37.920Z,38.65
2018-07-07T09:39:10.812Z,42.10
2018-07-07T09:41:39.860Z,42.91
2018-07-07T09:44:09.898Z,44.66
2018-07-07T09:46:38.990Z,41.02
2018-07-07T09:49:08.057Z,45.41
2018-07-07T09:51:39.088Z,42.30
2018-07-07T09:54:08.141Z,43.86
2018-07-07T09:56:38.410Z,45.09
2018-07-07T09:59:07.826Z,39.53
2018-07-07T10:01:36.869Z,41.29
2018-07-07T10:04:05.926Z,39.35
2018-07-07T10:06:36.022Z,36.52
2018-07-07T10:09:07.234Z,34.06
2018-07-07T10:11:36.809Z,33.46
2018-07-07T10:14:05.858Z,37.25
2018-07-07T10:19:11.760Z,37.28
2018-07-07T10:21:40.819Z,41.37
2018-07-07T10:24:09.866Z,45.42
2018-07-07T10:26:40.934Z,40.04
2018-07-07T10:29:12.150Z,37.63
2018-07-07T10:31:41.459Z,33.40
2018-07-07T10:34:11.925Z,35.16
2018-07-07T10:36:40.966Z,32.75
2018-07-07T10:41:46.043Z,36.63
2018-07-07T10:44:15.300Z,33.99
2018-07-07T10:46:44.341Z,32.58
2018-07-07T10:49:13.400Z,32.40
2018-07-07T10:51:42.453Z,29.51
2018-07-07T10:54:12.701Z,30.95
2018-07-07T10:56:43.042Z,30.58
2018-07-07T10:59:12.100Z,31.14
2018-07-07T11:01:42.080Z,29.33
2018-07-07T11:04:11.182Z,31.37
2018-07-07T11:06:42.298Z,33.60
2018-07-07T11:09:12.635Z,30.31
2018-07-07T11:11:41.694Z,32.19
2018-07-07T11:14:11.704Z,30.50
2018-07-07T11:16:48.957Z,27.55
2018-07-07T11:19:19.005Z,29.19
2018-07-07T11:21:48.147Z,27.27
2018-07-07T11:29:28.913Z,27.48
2018-07-07T11:31:57.978Z,26.31
2018-07-07T11:34:27.026Z,27.75
2018-07-07T11:36:56.204Z,27.63
2018-07-07T11:39:25.292Z,34.27
2018-07-07T11:41:54.334Z,34.17
2018-07-07T11:44:23.388Z,34.75
2018-07-07T11:46:52.617Z,34.97
2018-07-07T11:49:21.834Z,36.04
2018-07-07T11:51:50.855Z,36.56
2018-07-07T11:54:19.924Z,34.38
2018-07-07T11:56:49.122Z,35.36
2018-07-07T11:59:18.175Z,38.78
2018-07-07T12:04:23.919Z,39.12
2018-07-07T12:06:52.956Z,38.73
2018-07-07T12:09:22.012Z,36.04
2018-07-07T12:11:51.104Z,33.25
2018-07-07T12:14:21.302Z,33.43
2018-07-07T12:19:26.361Z,32.89
2018-07-07T12:21:56.389Z,33.15
2018-07-07T12:24:26.457Z,34.22
2018-07-07T12:26:55.522Z,37.47
2018-07-07T12:29:28.901Z,34.05
2018-07-07T12:31:58.855Z,33.69
2018-07-07T12:34:31.320Z,33.02
2018-07-07T12:37:00.390Z,31.65
2018-07-07T12:39:29.537Z,31.25
2018-07-07T12:41:58.602Z,33.08
2018-07-07T12:44:31.863Z,31.56
2018-07-07T12:47:01.069Z,33.60
2018-07-07T12:52:05.945Z,34.56
2018-07-07T12:54:34.960Z,35.36
2018-07-07T12:57:04.005Z,35.46
2018-07-07T12:59:33.247Z,36.61
2018-07-07T13:02:03.286Z,36.93
2018-07-07T13:04:32.352Z,37.77
2018-07-07T13:07:01.647Z,35.44
2018-07-07T13:12:06.958Z,37.52
2018-07-07T13:14:36.955Z,36.57
2018-07-07T13:17:06.169Z,36.16
2018-07-07T13:19:36.183Z,36.10
2018-07-07T13:22:12.655Z,34.04
2018-07-07T13:24:45.125Z,31.89
2018-07-07T13:27:18.858Z,34.31
2018-07-07T13:29:47.929Z,36.33
2018-07-07T13:32:17.094Z,40.57
2018-07-07T13:34:46.169Z,41.99
2018-07-07T13:37:16.145Z,37.76
2018-07-07T13:39:46.176Z,36.39
2018-07-07T13:42:15.399Z,35.88
2018-07-07T13:44:45.512Z,34.98
2018-07-07T13:49:50.498Z,37.08
2018-07-07T13:52:19.552Z,37.48
2018-07-07T13:54:50.592Z,35.46
2018-07-07T13:57:20.785Z,36.15
2018-07-07T13:59:49.850Z,36.30
2018-07-07T14:02:20.304Z,35.49
2018-07-07T14:07:25.122Z,38.04
2018-07-07T14:09:55.189Z,38.74
2018-07-07T14:12:24.255Z,40.89
2018-07-07T14:14:55.232Z,40.55
2018-07-07T14:17:24.300Z,37.35
2018-07-07T14:19:58.840Z,34.76
2018-07-07T14:25:03.683Z,35.22
2018-07-07T14:27:32.729Z,34.11
2018-07-07T14:30:01.789Z,35.67
2018-07-07T14:35:06.669Z,37.23
2018-07-07T14:37:35.957Z,35.35
2018-07-07T14:40:05.077Z,36.35
2018-07-07T14:42:36.144Z,36.46
2018-07-07T14:47:41.957Z,36.13
2018-07-07T14:52:47.787Z,31.22
2018-07-07T14:55:20.357Z,30.45
2018-07-07T14:57:49.529Z,30.46
2018-07-07T15:00:18.593Z,29.11
2018-07-07T15:02:47.661Z,27.44
2018-07-07T15:05:16.721Z,28.51
2018-07-07T15:07:45.974Z,28.60
2018-07-07T15:10:16.068Z,25.98
2018-07-07T15:12:45.106Z,25.69
2018-07-07T15:15:15.105Z,25.36
2018-07-07T15:17:44.610Z,24.55
2018-07-07T15:20:14.642Z,25.12
2018-07-07T15:22:43.734Z,23.54
2018-07-07T15:25:12.750Z,24.90
2018-07-07T15:27:43.232Z,24.65
2018-07-07T15:30:12.449Z,25.12
2018-07-07T15:32:41.491Z,25.03
2018-07-07T15:35:10.579Z,23.65
2018-07-07T15:37:39.738Z,24.46
2018-07-07T15:42:44.638Z,24.13
2018-07-07T15:45:14.021Z,22.96
2018-07-07T15:47:44.079Z,24.85
2018-07-07T15:52:49.250Z,22.54
2018-07-07T15:55:19.242Z,22.91
2018-07-07T15:57:49.281Z,26.24
2018-07-07T16:00:18.363Z,30.71
2018-07-07T16:02:48.591Z,32.96
2018-07-07T16:05:17.617Z,29.71
2018-07-07T16:07:46.665Z,28.74
2018-07-07T16:10:15.728Z,26.18
2018-07-07T16:12:44.887Z,25.29
2018-07-07T16:15:17.710Z,26.14
2018-07-07T16:17:46.719Z,26.56
2018-07-07T16:20:15.773Z,25.44
2018-07-07T16:22:45.757Z,24.83
2018-07-07T16:25:14.814Z,25.56
2018-07-07T16:27:44.035Z,25.04
2018-07-07T16:30:13.338Z,25.90
2018-07-07T16:32:42.489Z,28.42
2018-07-07T16:35:12.509Z,29.80
2018-07-07T16:37:41.572Z,32.16
2018-07-07T16:40:10.629Z,34.04
2018-07-07T16:42:39.689Z,35.08
2018-07-07T16:45:09.037Z,36.10
2018-07-07T16:47:41.546Z,38.60
2018-07-07T16:50:10.738Z,38.50
2018-07-07T16:52:39.773Z,39.41
2018-07-07T16:57:44.661Z,39.03
2018-07-07T17:00:13.708Z,38.75
2018-07-07T17:02:42.766Z,38.64
2018-07-07T17:05:12.754Z,40.41
2018-07-07T17:07:42.862Z,40.90
2018-07-07T17:10:11.902Z,41.08
2018-07-07T17:12:41.048Z,40.21
2018-07-07T17:15:11.206Z,39.93
2018-07-07T17:17:42.442Z,41.20
2018-07-07T17:20:11.509Z,41.62
2018-07-07T17:22:40.575Z,41.06
2018-07-07T17:25:09.625Z,42.11
2018-07-07T17:27:38.690Z,42.36
2018-07-07T17:30:07.734Z,41.79
2018-07-07T17:32:36.793Z,43.16
2018-07-07T17:37:41.625Z,45.71
2018-07-07T17:40:10.760Z,43.68
2018-07-07T17:42:39.994Z,43.77
2018-07-07T17:45:09.058Z,43.92
2018-07-07T17:50:13.865Z,42.54
2018-07-07T17:52:42.938Z,42.76
2018-07-07T17:57:47.818Z,42.96
2018-07-07T18:02:52.924Z,44.16
2018-07-07T18:05:21.969Z,44.07
2018-07-07T18:07:52.992Z,44.92
2018-07-07T18:10:22.044Z,46.81
2018-07-07T18:12:51.238Z,48.99
2018-07-07T18:15:20.398Z,48.08
2018-07-07T18:17:50.398Z,48.63
2018-07-07T18:20:21.461Z,49.55
2018-07-07T18:25:26.494Z,56.30
2018-07-07T18:27:55.542Z,60.48
2018-07-07T18:30:25.525Z,58.50
2018-07-07T18:32:54.588Z,62.44
2018-07-07T18:35:23.843Z,63.06
2018-07-07T18:40:29.712Z,61.39
2018-07-07T18:43:04.179Z,64.05
2018-07-07T18:45:34.157Z,68.84
2018-07-07T18:48:07.030Z,63.78
2018-07-07T18:50:37.073Z,62.25
2018-07-07T18:53:13.592Z,67.63
2018-07-07T18:55:42.626Z,65.78
2018-07-07T18:58:17.240Z,67.56
2018-07-07T19:00:48.374Z,65.49
2018-07-07T19:05:54.172Z,68.00
2018-07-07T19:08:23.227Z,65.30
2018-07-07T19:10:52.279Z,68.08
2018-07-07T19:13:22.284Z,67.85
2018-07-07T19:15:52.315Z,71.74
2018-07-07T19:18:21.361Z,67.97
2018-07-07T19:20:50.410Z,69.90
2018-07-07T19:28:30.734Z,69.62
2018-07-07T19:31:00.734Z,73.84
2018-07-07T19:39:13.524Z,70.52
2018-07-07T19:41:42.579Z,74.74
2018-07-07T19:46:47.327Z,77.34
2018-07-07T19:49:17.361Z,72.98
2018-07-07T19:51:46.423Z,83.10
2018-07-07T19:54:18.691Z,82.13
2018-07-07T19:59:23.464Z,76.72
2018-07-07T20:01:52.541Z,75.74
2018-07-07T20:04:23.613Z,78.17
2018-07-07T20:06:52.681Z,80.24
2018-07-07T20:09:21.751Z,80.55
2018-07-07T20:14:28.526Z,80.57
2018-07-07T20:16:58.513Z,79.67
2018-07-07T20:19:28.525Z,77.76
2018-07-07T20:21:58.579Z,81.81
2018-07-07T20:24:27.713Z,78.94
2018-07-07T20:26:56.739Z,81.22
2018-07-07T20:32:01.525Z,80.75
2018-07-07T20:34:30.863Z,82.01
2018-07-07T20:36:59.923Z,82.40
2018-07-07T20:39:29.942Z,82.11
2018-07-07T20:44:34.825Z,81.70
2018-07-07T20:47:03.893Z,82.01
2018-07-07T20:49:32.963Z,82.69
2018-07-07T20:52:03.010Z,80.49
2018-07-07T20:54:41.029Z,83.48
2018-07-07T20:57:10.098Z,82.94
2018-07-07T20:59:39.161Z,84.26
2018-07-07T21:02:08.348Z,81.98
2018-07-07T21:07:13.058Z,84.52
2018-07-07T21:12:17.923Z,84.40
2018-07-07T21:14:47.943Z,83.89
2018-07-07T21:17:18.957Z,84.44
2018-07-07T21:19:48.973Z,82.49
2018-07-07T21:24:53.773Z,81.34
2018-07-07T21:27:22.880Z,83.66
2018-07-07T21:29:52.125Z,83.79
2018-07-07T21:32:21.224Z,82.42
2018-07-07T21:37:26.035Z,82.60
2018-07-07T21:42:31.370Z,83.46
2018-07-07T21:45:01.361Z,83.94
2018-07-07T21:47:32.426Z,83.84
2018-07-07T21:50:02.442Z,84.83
2018-07-07T21:52:31.504Z,85.78
2018-07-07T21:55:00.562Z,85.05
2018-07-07T22:00:05.414Z,83.28
2018-07-07T22:02:34.473Z,85.01
2018-07-07T22:08:02.245Z,83.65
2018-07-07T22:13:07.034Z,83.09
2018-07-07T22:15:36.104Z,83.20
2018-07-07T22:18:05.168Z,83.23
2018-07-07T22:20:34.278Z,84.35
2018-07-07T22:23:03.333Z,84.24
2018-07-07T22:25:33.314Z,84.31
2018-07-07T22:30:38.103Z,83.73
2018-07-07T22:33:08.081Z,83.47
2018-07-07T22:35:37.145Z,84.62
2018-07-07T22:38:06.206Z,84.64
2018-07-07T22:40:35.314Z,85.25
2018-07-07T22:43:09.699Z,85.74
2018-07-07T22:48:14.523Z,85.46
2018-07-07T22:50:44.465Z,85.73
2018-07-07T22:58:26.059Z,85.60
2018-07-07T23:00:55.143Z,85.66
2018-07-07T23:05:59.980Z,86.05
2018-07-07T23:08:29.975Z,86.68
2018-07-07T23:10:59.023Z,87.36
2018-07-07T23:13:28.112Z,87.83
2018-07-07T23:15:59.113Z,88.54
2018-07-07T23:23:39.632Z,87.99
2018-07-07T23:26:08.719Z,87.11
2018-07-07T23:28:37.796Z,88.37
2018-07-07T23:31:06.847Z,89.09
2018-07-07T23:36:11.687Z,88.45
2018-07-07T23:38:41.657Z,88.66
2018-07-07T23:41:10.701Z,88.79
2018-07-07T23:46:15.560Z,87.62
2018-07-07T23:48:44.629Z,87.47
2018-07-07T23:51:14.650Z,88.01
2018-07-07T23:56:19.422Z,87.63
2018-07-07T23:58:48.499Z,87.81
